sensor_id;sensor_type;location;lat;lon;timestamp;P1;durP1;ratioP1;P2;durP2;ratioP2
68126;SDS011;54931;52.098;21.006;2023-06-10T00:00:44;17.00;;;13.30;;
68126;SDS011;54931;52.098;21.006;2023-06-10T00:03:33;19.90;;;13.50;;
68126;SDS011;54931;52.098;21.006;2023-06-10T00:06:00;17.70;;;13.00;;
68126;SDS011;54931;52.098;21.006;2023-06-10T00:08:28;16.70;;;13.00;;
68126;SDS011;54931;52.098;21.006;2023-06-10T00:10:59;18.10;;;13.40;;
68126;SDS011;54931;52.098;21.006;2023-06-10T00:13:27;18.50;;;12.70;;
68126;SDS011;54931;52.098;21.006;2023-06-10T00:15:55;16.10;;;12.80;;
68126;SDS011;54931;52.098;21.006;2023-06-10T00:18:23;15.60;;;12.90;;
68126;SDS011;54931;52.098;21.006;2023-06-10T00:20:50;19.20;;;12.60;;
68126;SDS011;54931;52.098;21.006;2023-06-10T00:23:21;20.40;;;13.60;;
68126;SDS011;54931;52.098;21.006;2023-06-10T00:25:49;16.60;;;12.90;;
68126;SDS011;54931;52.098;21.006;2023-06-10T00:28:17;16.40;;;12.30;;
68126;SDS011;54931;52.098;21.006;2023-06-10T00:30:45;16.70;;;12.80;;
68126;SDS011;54931;52.098;21.006;2023-06-10T00:33:13;16.70;;;11.70;;
68126;SDS011;54931;52.098;21.006;2023-06-10T00:35:41;17.70;;;13.00;;
68126;SDS011;54931;52.098;21.006;2023-06-10T00:38:09;16.40;;;12.70;;
68126;SDS011;54931;52.098;21.006;2023-06-10T00:40:40;18.40;;;13.00;;
68126;SDS011;54931;52.098;21.006;2023-06-10T00:43:09;17.20;;;12.70;;
68126;SDS011;54931;52.098;21.006;2023-06-10T00:45:37;17.20;;;12.20;;
68126;SDS011;54931;52.098;21.006;2023-06-10T00:48:05;18.80;;;13.10;;
68126;SDS011;54931;52.098;21.006;2023-06-10T00:50:33;15.40;;;12.20;;
68126;SDS011;54931;52.098;21.006;2023-06-10T00:53:02;17.80;;;12.70;;
68126;SDS011;54931;52.098;21.006;2023-06-10T00:55:30;17.20;;;11.70;;
68126;SDS011;54931;52.098;21.006;2023-06-10T00:58:00;15.20;;;11.10;;
68126;SDS011;54931;52.098;21.006;2023-06-10T01:00:28;13.90;;;9.80;;
68126;SDS011;54931;52.098;21.006;2023-06-10T01:02:56;12.20;;;9.20;;
68126;SDS011;54931;52.098;21.006;2023-06-10T01:05:24;13.20;;;9.60;;
68126;SDS011;54931;52.098;21.006;2023-06-10T01:08:10;15.20;;;9.40;;
68126;SDS011;54931;52.098;21.006;2023-06-10T01:10:57;12.60;;;8.80;;
68126;SDS011;54931;52.098;21.006;2023-06-10T01:13:29;12.00;;;8.90;;
68126;SDS011;54931;52.098;21.006;2023-06-10T01:15:57;12.50;;;8.60;;
68126;SDS011;54931;52.098;21.006;2023-06-10T01:18:32;11.70;;;8.80;;
68126;SDS011;54931;52.098;21.006;2023-06-10T01:20:59;12.90;;;8.80;;
68126;SDS011;54931;52.098;21.006;2023-06-10T01:23:27;14.50;;;8.30;;
68126;SDS011;54931;52.098;21.006;2023-06-10T01:26:06;11.10;;;8.00;;
68126;SDS011;54931;52.098;21.006;2023-06-10T01:28:49;15.80;;;8.50;;
68126;SDS011;54931;52.098;21.006;2023-06-10T01:32:08;11.70;;;8.10;;
68126;SDS011;54931;52.098;21.006;2023-06-10T01:34:42;14.60;;;8.00;;
68126;SDS011;54931;52.098;21.006;2023-06-10T01:37:13;9.40;;;7.90;;
68126;SDS011;54931;52.098;21.006;2023-06-10T01:39:46;10.20;;;7.40;;
68126;SDS011;54931;52.098;21.006;2023-06-10T01:42:16;13.20;;;8.40;;
68126;SDS011;54931;52.098;21.006;2023-06-10T01:44:45;13.60;;;8.10;;
68126;SDS011;54931;52.098;21.006;2023-06-10T01:47:13;14.10;;;7.90;;
68126;SDS011;54931;52.098;21.006;2023-06-10T01:49:40;10.90;;;7.30;;
68126;SDS011;54931;52.098;21.006;2023-06-10T01:52:09;13.50;;;7.60;;
68126;SDS011;54931;52.098;21.006;2023-06-10T01:54:36;11.80;;;7.40;;
68126;SDS011;54931;52.098;21.006;2023-06-10T01:57:05;10.00;;;7.40;;
68126;SDS011;54931;52.098;21.006;2023-06-10T01:59:33;10.20;;;7.60;;
68126;SDS011;54931;52.098;21.006;2023-06-10T02:02:01;12.50;;;7.70;;
68126;SDS011;54931;52.098;21.006;2023-06-10T02:04:29;10.60;;;7.40;;
68126;SDS011;54931;52.098;21.006;2023-06-10T02:06:57;11.20;;;7.70;;
68126;SDS011;54931;52.098;21.006;2023-06-10T02:09:25;12.40;;;7.70;;
68126;SDS011;54931;52.098;21.006;2023-06-10T02:11:53;16.40;;;7.20;;
68126;SDS011;54931;52.098;21.006;2023-06-10T02:14:20;12.80;;;6.90;;
68126;SDS011;54931;52.098;21.006;2023-06-10T02:16:48;9.40;;;7.00;;
68126;SDS011;54931;52.098;21.006;2023-06-10T02:19:16;13.40;;;7.80;;
68126;SDS011;54931;52.098;21.006;2023-06-10T02:21:45;11.10;;;7.10;;
68126;SDS011;54931;52.098;21.006;2023-06-10T02:24:12;10.30;;;7.20;;
68126;SDS011;54931;52.098;21.006;2023-06-10T02:26:40;13.30;;;6.60;;
68126;SDS011;54931;52.098;21.006;2023-06-10T02:29:08;15.70;;;6.60;;
68126;SDS011;54931;52.098;21.006;2023-06-10T02:31:37;11.90;;;6.70;;
68126;SDS011;54931;52.098;21.006;2023-06-10T02:34:05;13.00;;;6.10;;
68126;SDS011;54931;52.098;21.006;2023-06-10T02:36:32;11.20;;;6.30;;
68126;SDS011;54931;52.098;21.006;2023-06-10T02:39:03;11.20;;;6.10;;
68126;SDS011;54931;52.098;21.006;2023-06-10T02:41:31;12.00;;;5.90;;
68126;SDS011;54931;52.098;21.006;2023-06-10T02:43:59;10.10;;;5.90;;
68126;SDS011;54931;52.098;21.006;2023-06-10T02:46:27;10.20;;;6.00;;
68126;SDS011;54931;52.098;21.006;2023-06-10T02:48:56;12.50;;;6.10;;
68126;SDS011;54931;52.098;21.006;2023-06-10T02:51:23;9.50;;;5.50;;
68126;SDS011;54931;52.098;21.006;2023-06-10T02:53:51;7.90;;;5.40;;
68126;SDS011;54931;52.098;21.006;2023-06-10T02:56:19;8.60;;;5.40;;
68126;SDS011;54931;52.098;21.006;2023-06-10T02:58:47;9.10;;;5.60;;
68126;SDS011;54931;52.098;21.006;2023-06-10T03:01:16;9.10;;;5.40;;
68126;SDS011;54931;52.098;21.006;2023-06-10T03:03:45;9.50;;;5.70;;
68126;SDS011;54931;52.098;21.006;2023-06-10T03:06:14;10.90;;;6.10;;
68126;SDS011;54931;52.098;21.006;2023-06-10T03:08:42;7.70;;;4.90;;
68126;SDS011;54931;52.098;21.006;2023-06-10T03:11:09;8.70;;;5.50;;
68126;SDS011;54931;52.098;21.006;2023-06-10T03:13:38;8.40;;;5.40;;
68126;SDS011;54931;52.098;21.006;2023-06-10T03:16:07;8.40;;;5.50;;
68126;SDS011;54931;52.098;21.006;2023-06-10T03:18:35;9.30;;;5.20;;
68126;SDS011;54931;52.098;21.006;2023-06-10T03:21:02;10.50;;;5.50;;
68126;SDS011;54931;52.098;21.006;2023-06-10T03:23:30;11.20;;;5.20;;
68126;SDS011;54931;52.098;21.006;2023-06-10T03:25:58;9.20;;;4.90;;
68126;SDS011;54931;52.098;21.006;2023-06-10T03:28:26;11.10;;;5.30;;
68126;SDS011;54931;52.098;21.006;2023-06-10T03:30:53;10.00;;;5.10;;
68126;SDS011;54931;52.098;21.006;2023-06-10T03:33:22;9.20;;;5.00;;
68126;SDS011;54931;52.098;21.006;2023-06-10T03:35:51;10.70;;;5.10;;
68126;SDS011;54931;52.098;21.006;2023-06-10T03:38:19;14.40;;;5.60;;
68126;SDS011;54931;52.098;21.006;2023-06-10T03:40:48;9.10;;;5.60;;
68126;SDS011;54931;52.098;21.006;2023-06-10T03:43:16;11.50;;;5.80;;
68126;SDS011;54931;52.098;21.006;2023-06-10T03:45:45;9.30;;;5.30;;
68126;SDS011;54931;52.098;21.006;2023-06-10T03:48:14;12.90;;;5.70;;
68126;SDS011;54931;52.098;21.006;2023-06-10T03:50:43;8.40;;;5.00;;
68126;SDS011;54931;52.098;21.006;2023-06-10T03:53:10;10.40;;;5.20;;
68126;SDS011;54931;52.098;21.006;2023-06-10T03:55:38;8.80;;;5.00;;
68126;SDS011;54931;52.098;21.006;2023-06-10T03:58:06;10.00;;;5.00;;
68126;SDS011;54931;52.098;21.006;2023-06-10T04:00:34;12.40;;;4.90;;
68126;SDS011;54931;52.098;21.006;2023-06-10T04:03:09;10.30;;;5.60;;
68126;SDS011;54931;52.098;21.006;2023-06-10T04:05:41;8.80;;;4.90;;
68126;SDS011;54931;52.098;21.006;2023-06-10T04:08:09;10.50;;;5.00;;
68126;SDS011;54931;52.098;21.006;2023-06-10T04:10:37;8.50;;;4.90;;
68126;SDS011;54931;52.098;21.006;2023-06-10T04:13:05;14.60;;;5.20;;
68126;SDS011;54931;52.098;21.006;2023-06-10T04:15:32;10.90;;;5.30;;
68126;SDS011;54931;52.098;21.006;2023-06-10T04:18:00;8.10;;;4.80;;
68126;SDS011;54931;52.098;21.006;2023-06-10T04:20:28;9.50;;;5.00;;
68126;SDS011;54931;52.098;21.006;2023-06-10T04:22:56;10.80;;;4.90;;
68126;SDS011;54931;52.098;21.006;2023-06-10T04:25:24;9.90;;;5.00;;
68126;SDS011;54931;52.098;21.006;2023-06-10T04:27:54;10.50;;;5.10;;
68126;SDS011;54931;52.098;21.006;2023-06-10T04:30:22;10.00;;;5.30;;
68126;SDS011;54931;52.098;21.006;2023-06-10T04:32:50;11.50;;;5.00;;
68126;SDS011;54931;52.098;21.006;2023-06-10T04:35:18;9.60;;;5.00;;
68126;SDS011;54931;52.098;21.006;2023-06-10T04:37:45;6.80;;;4.70;;
68126;SDS011;54931;52.098;21.006;2023-06-10T04:40:13;7.70;;;4.80;;
68126;SDS011;54931;52.098;21.006;2023-06-10T04:42:43;7.50;;;4.70;;
68126;SDS011;54931;52.098;21.006;2023-06-10T04:45:11;11.10;;;4.90;;
68126;SDS011;54931;52.098;21.006;2023-06-10T04:47:39;11.50;;;5.10;;
68126;SDS011;54931;52.098;21.006;2023-06-10T04:50:07;11.00;;;5.40;;
68126;SDS011;54931;52.098;21.006;2023-06-10T04:52:35;11.30;;;5.20;;
68126;SDS011;54931;52.098;21.006;2023-06-10T04:55:03;10.60;;;5.40;;
68126;SDS011;54931;52.098;21.006;2023-06-10T04:57:31;11.90;;;5.40;;
68126;SDS011;54931;52.098;21.006;2023-06-10T04:59:59;9.80;;;5.30;;
68126;SDS011;54931;52.098;21.006;2023-06-10T05:02:26;10.60;;;5.40;;
68126;SDS011;54931;52.098;21.006;2023-06-10T05:04:54;10.70;;;5.20;;
68126;SDS011;54931;52.098;21.006;2023-06-10T05:07:23;7.60;;;4.60;;
68126;SDS011;54931;52.098;21.006;2023-06-10T05:09:51;6.80;;;4.80;;
68126;SDS011;54931;52.098;21.006;2023-06-10T05:12:19;8.60;;;4.80;;
68126;SDS011;54931;52.098;21.006;2023-06-10T05:14:47;11.80;;;5.10;;
68126;SDS011;54931;52.098;21.006;2023-06-10T05:17:15;9.50;;;4.80;;
68126;SDS011;54931;52.098;21.006;2023-06-10T05:19:43;7.60;;;4.90;;
68126;SDS011;54931;52.098;21.006;2023-06-10T05:22:11;8.40;;;4.80;;
68126;SDS011;54931;52.098;21.006;2023-06-10T05:24:40;7.80;;;5.10;;
68126;SDS011;54931;52.098;21.006;2023-06-10T05:27:08;8.70;;;4.90;;
68126;SDS011;54931;52.098;21.006;2023-06-10T05:29:37;8.90;;;5.20;;
68126;SDS011;54931;52.098;21.006;2023-06-10T05:32:06;10.10;;;4.50;;
68126;SDS011;54931;52.098;21.006;2023-06-10T05:34:34;9.90;;;4.90;;
68126;SDS011;54931;52.098;21.006;2023-06-10T05:37:02;10.50;;;4.70;;
68126;SDS011;54931;52.098;21.006;2023-06-10T05:39:31;10.80;;;5.00;;
68126;SDS011;54931;52.098;21.006;2023-06-10T05:41:58;8.10;;;5.00;;
68126;SDS011;54931;52.098;21.006;2023-06-10T05:44:26;11.20;;;5.10;;
68126;SDS011;54931;52.098;21.006;2023-06-10T05:46:55;12.90;;;4.70;;
68126;SDS011;54931;52.098;21.006;2023-06-10T05:49:22;9.10;;;4.80;;
68126;SDS011;54931;52.098;21.006;2023-06-10T05:51:50;8.00;;;5.00;;
68126;SDS011;54931;52.098;21.006;2023-06-10T05:54:19;6.30;;;4.60;;
68126;SDS011;54931;52.098;21.006;2023-06-10T05:56:47;9.30;;;4.90;;
68126;SDS011;54931;52.098;21.006;2023-06-10T05:59:15;8.20;;;4.40;;
68126;SDS011;54931;52.098;21.006;2023-06-10T06:01:43;7.80;;;4.60;;
68126;SDS011;54931;52.098;21.006;2023-06-10T06:04:11;8.20;;;5.00;;
68126;SDS011;54931;52.098;21.006;2023-06-10T06:06:39;10.50;;;5.30;;
68126;SDS011;54931;52.098;21.006;2023-06-10T06:09:07;6.70;;;4.60;;
68126;SDS011;54931;52.098;21.006;2023-06-10T06:11:35;11.80;;;4.80;;
68126;SDS011;54931;52.098;21.006;2023-06-10T06:14:03;9.40;;;4.80;;
68126;SDS011;54931;52.098;21.006;2023-06-10T06:16:32;6.10;;;4.90;;
68126;SDS011;54931;52.098;21.006;2023-06-10T06:19:00;10.00;;;5.00;;
68126;SDS011;54931;52.098;21.006;2023-06-10T06:21:28;10.40;;;4.70;;
68126;SDS011;54931;52.098;21.006;2023-06-10T06:23:56;12.00;;;5.10;;
68126;SDS011;54931;52.098;21.006;2023-06-10T06:26:25;10.90;;;5.20;;
68126;SDS011;54931;52.098;21.006;2023-06-10T06:28:52;8.20;;;4.60;;
68126;SDS011;54931;52.098;21.006;2023-06-10T06:31:20;8.10;;;4.80;;
68126;SDS011;54931;52.098;21.006;2023-06-10T06:33:48;11.20;;;4.90;;
68126;SDS011;54931;52.098;21.006;2023-06-10T06:36:16;10.90;;;4.50;;
68126;SDS011;54931;52.098;21.006;2023-06-10T06:38:43;6.70;;;4.80;;
68126;SDS011;54931;52.098;21.006;2023-06-10T06:41:11;7.50;;;4.80;;
68126;SDS011;54931;52.098;21.006;2023-06-10T06:43:39;12.20;;;4.50;;
68126;SDS011;54931;52.098;21.006;2023-06-10T06:46:07;9.90;;;4.80;;
68126;SDS011;54931;52.098;21.006;2023-06-10T06:48:35;8.70;;;4.70;;
68126;SDS011;54931;52.098;21.006;2023-06-10T06:51:02;8.10;;;5.10;;
68126;SDS011;54931;52.098;21.006;2023-06-10T06:53:30;11.60;;;5.20;;
68126;SDS011;54931;52.098;21.006;2023-06-10T06:55:58;10.70;;;5.10;;
68126;SDS011;54931;52.098;21.006;2023-06-10T06:58:26;10.00;;;5.20;;
68126;SDS011;54931;52.098;21.006;2023-06-10T07:00:55;8.10;;;4.80;;
68126;SDS011;54931;52.098;21.006;2023-06-10T07:03:23;11.90;;;4.80;;
68126;SDS011;54931;52.098;21.006;2023-06-10T07:05:51;7.90;;;4.40;;
68126;SDS011;54931;52.098;21.006;2023-06-10T07:08:19;7.70;;;4.70;;
68126;SDS011;54931;52.098;21.006;2023-06-10T07:10:46;8.00;;;5.00;;
68126;SDS011;54931;52.098;21.006;2023-06-10T07:13:14;10.00;;;5.00;;
68126;SDS011;54931;52.098;21.006;2023-06-10T07:15:42;11.30;;;4.60;;
68126;SDS011;54931;52.098;21.006;2023-06-10T07:18:10;10.00;;;4.70;;
68126;SDS011;54931;52.098;21.006;2023-06-10T07:20:38;12.30;;;5.10;;
68126;SDS011;54931;52.098;21.006;2023-06-10T07:23:06;8.80;;;5.20;;
68126;SDS011;54931;52.098;21.006;2023-06-10T07:25:34;7.50;;;4.90;;
68126;SDS011;54931;52.098;21.006;2023-06-10T07:28:02;7.20;;;5.00;;
68126;SDS011;54931;52.098;21.006;2023-06-10T07:30:30;8.60;;;4.50;;
68126;SDS011;54931;52.098;21.006;2023-06-10T07:32:57;9.50;;;5.10;;
68126;SDS011;54931;52.098;21.006;2023-06-10T07:35:26;10.60;;;5.00;;
68126;SDS011;54931;52.098;21.006;2023-06-10T07:37:54;9.80;;;4.80;;
68126;SDS011;54931;52.098;21.006;2023-06-10T07:40:21;9.10;;;5.10;;
68126;SDS011;54931;52.098;21.006;2023-06-10T07:42:50;7.60;;;4.80;;
68126;SDS011;54931;52.098;21.006;2023-06-10T07:45:17;7.50;;;4.90;;
68126;SDS011;54931;52.098;21.006;2023-06-10T07:47:46;10.00;;;5.00;;
68126;SDS011;54931;52.098;21.006;2023-06-10T07:50:14;5.90;;;4.50;;
68126;SDS011;54931;52.098;21.006;2023-06-10T07:52:42;14.20;;;5.10;;
68126;SDS011;54931;52.098;21.006;2023-06-10T07:55:09;11.00;;;5.20;;
68126;SDS011;54931;52.098;21.006;2023-06-10T07:57:37;7.30;;;5.10;;
68126;SDS011;54931;52.098;21.006;2023-06-10T08:00:06;8.40;;;5.30;;
68126;SDS011;54931;52.098;21.006;2023-06-10T08:02:36;12.60;;;5.10;;
68126;SDS011;54931;52.098;21.006;2023-06-10T08:05:05;10.10;;;5.00;;
68126;SDS011;54931;52.098;21.006;2023-06-10T08:07:33;10.10;;;4.90;;
68126;SDS011;54931;52.098;21.006;2023-06-10T08:10:02;8.30;;;5.10;;
68126;SDS011;54931;52.098;21.006;2023-06-10T08:12:35;7.50;;;4.60;;
68126;SDS011;54931;52.098;21.006;2023-06-10T08:15:03;7.50;;;4.80;;
68126;SDS011;54931;52.098;21.006;2023-06-10T08:17:32;8.50;;;4.80;;
68126;SDS011;54931;52.098;21.006;2023-06-10T08:20:01;8.10;;;4.50;;
68126;SDS011;54931;52.098;21.006;2023-06-10T08:22:29;7.20;;;4.70;;
68126;SDS011;54931;52.098;21.006;2023-06-10T08:24:57;8.10;;;5.00;;
68126;SDS011;54931;52.098;21.006;2023-06-10T08:27:25;8.00;;;4.60;;
68126;SDS011;54931;52.098;21.006;2023-06-10T08:29:53;7.80;;;4.00;;
68126;SDS011;54931;52.098;21.006;2023-06-10T08:32:21;6.60;;;4.50;;
68126;SDS011;54931;52.098;21.006;2023-06-10T08:34:49;7.50;;;4.40;;
68126;SDS011;54931;52.098;21.006;2023-06-10T08:37:17;6.30;;;4.40;;
68126;SDS011;54931;52.098;21.006;2023-06-10T08:39:45;5.50;;;4.20;;
68126;SDS011;54931;52.098;21.006;2023-06-10T08:42:39;6.10;;;4.00;;
68126;SDS011;54931;52.098;21.006;2023-06-10T08:45:17;9.50;;;4.00;;
68126;SDS011;54931;52.098;21.006;2023-06-10T08:47:49;11.50;;;5.20;;
68126;SDS011;54931;52.098;21.006;2023-06-10T08:50:21;8.50;;;5.00;;
68126;SDS011;54931;52.098;21.006;2023-06-10T08:52:54;8.70;;;4.90;;
68126;SDS011;54931;52.098;21.006;2023-06-10T08:58:00;8.50;;;4.50;;
68126;SDS011;54931;52.098;21.006;2023-06-10T09:00:29;7.50;;;4.50;;
68126;SDS011;54931;52.098;21.006;2023-06-10T09:02:59;6.60;;;4.40;;
68126;SDS011;54931;52.098;21.006;2023-06-10T09:05:29;6.40;;;3.70;;
68126;SDS011;54931;52.098;21.006;2023-06-10T09:08:00;5.50;;;4.20;;
68126;SDS011;54931;52.098;21.006;2023-06-10T09:10:29;7.50;;;4.00;;
68126;SDS011;54931;52.098;21.006;2023-06-10T09:12:57;6.40;;;3.90;;
68126;SDS011;54931;52.098;21.006;2023-06-10T09:15:25;6.60;;;4.10;;
68126;SDS011;54931;52.098;21.006;2023-06-10T09:17:53;9.00;;;4.10;;
68126;SDS011;54931;52.098;21.006;2023-06-10T09:20:20;6.50;;;3.70;;
68126;SDS011;54931;52.098;21.006;2023-06-10T09:22:49;6.30;;;3.90;;
68126;SDS011;54931;52.098;21.006;2023-06-10T09:25:17;7.40;;;4.30;;
68126;SDS011;54931;52.098;21.006;2023-06-10T09:27:51;6.50;;;4.50;;
68126;SDS011;54931;52.098;21.006;2023-06-10T09:30:29;8.20;;;4.30;;
68126;SDS011;54931;52.098;21.006;2023-06-10T09:33:01;8.00;;;4.40;;
68126;SDS011;54931;52.098;21.006;2023-06-10T09:35:31;5.90;;;4.40;;
68126;SDS011;54931;52.098;21.006;2023-06-10T09:37:59;5.50;;;3.80;;
68126;SDS011;54931;52.098;21.006;2023-06-10T09:40:30;10.90;;;4.20;;
68126;SDS011;54931;52.098;21.006;2023-06-10T09:42:59;7.70;;;3.90;;
68126;SDS011;54931;52.098;21.006;2023-06-10T09:45:31;15.00;;;4.10;;
68126;SDS011;54931;52.098;21.006;2023-06-10T09:48:00;5.90;;;3.90;;
68126;SDS011;54931;52.098;21.006;2023-06-10T09:50:33;7.40;;;4.40;;
68126;SDS011;54931;52.098;21.006;2023-06-10T09:53:01;6.10;;;3.90;;
68126;SDS011;54931;52.098;21.006;2023-06-10T09:55:33;7.60;;;4.00;;
68126;SDS011;54931;52.098;21.006;2023-06-10T09:58:03;6.80;;;4.30;;
68126;SDS011;54931;52.098;21.006;2023-06-10T10:00:36;6.10;;;4.10;;
68126;SDS011;54931;52.098;21.006;2023-06-10T10:03:04;8.20;;;4.10;;
68126;SDS011;54931;52.098;21.006;2023-06-10T10:05:33;7.40;;;4.20;;
68126;SDS011;54931;52.098;21.006;2023-06-10T10:08:01;5.80;;;3.90;;
68126;SDS011;54931;52.098;21.006;2023-06-10T10:10:29;8.70;;;4.40;;
68126;SDS011;54931;52.098;21.006;2023-06-10T10:12:57;9.40;;;4.20;;
68126;SDS011;54931;52.098;21.006;2023-06-10T10:15:31;6.20;;;4.00;;
68126;SDS011;54931;52.098;21.006;2023-06-10T10:18:07;7.40;;;4.00;;
68126;SDS011;54931;52.098;21.006;2023-06-10T10:20:45;7.10;;;3.70;;
68126;SDS011;54931;52.098;21.006;2023-06-10T10:23:21;5.10;;;4.10;;
68126;SDS011;54931;52.098;21.006;2023-06-10T10:25:57;8.70;;;4.30;;
68126;SDS011;54931;52.098;21.006;2023-06-10T10:28:41;6.10;;;3.90;;
68126;SDS011;54931;52.098;21.006;2023-06-10T10:31:18;9.10;;;4.20;;
68126;SDS011;54931;52.098;21.006;2023-06-10T10:34:04;5.70;;;4.00;;
68126;SDS011;54931;52.098;21.006;2023-06-10T10:36:35;8.30;;;3.90;;
68126;SDS011;54931;52.098;21.006;2023-06-10T10:39:04;5.90;;;4.30;;
68126;SDS011;54931;52.098;21.006;2023-06-10T10:41:33;5.30;;;4.40;;
68126;SDS011;54931;52.098;21.006;2023-06-10T10:44:06;7.00;;;4.10;;
68126;SDS011;54931;52.098;21.006;2023-06-10T10:46:50;5.20;;;4.20;;
68126;SDS011;54931;52.098;21.006;2023-06-10T10:49:20;8.90;;;4.10;;
68126;SDS011;54931;52.098;21.006;2023-06-10T10:52:00;7.80;;;4.20;;
68126;SDS011;54931;52.098;21.006;2023-06-10T10:57:18;6.00;;;3.70;;
68126;SDS011;54931;52.098;21.006;2023-06-10T10:59:56;6.80;;;3.80;;
68126;SDS011;54931;52.098;21.006;2023-06-10T11:05:07;7.00;;;4.20;;
68126;SDS011;54931;52.098;21.006;2023-06-10T11:07:36;7.40;;;4.00;;
68126;SDS011;54931;52.098;21.006;2023-06-10T11:10:12;4.70;;;3.80;;
68126;SDS011;54931;52.098;21.006;2023-06-10T11:15:10;10.20;;;4.50;;
68126;SDS011;54931;52.098;21.006;2023-06-10T11:18:08;6.90;;;4.50;;
68126;SDS011;54931;52.098;21.006;2023-06-10T11:26:15;7.70;;;4.10;;
68126;SDS011;54931;52.098;21.006;2023-06-10T11:31:20;6.70;;;4.50;;
68126;SDS011;54931;52.098;21.006;2023-06-10T11:33:57;9.50;;;4.20;;
68126;SDS011;54931;52.098;21.006;2023-06-10T11:36:31;7.90;;;4.60;;
68126;SDS011;54931;52.098;21.006;2023-06-10T11:39:02;7.80;;;4.70;;
68126;SDS011;54931;52.098;21.006;2023-06-10T11:41:32;8.70;;;4.60;;
68126;SDS011;54931;52.098;21.006;2023-06-10T11:44:03;8.70;;;4.70;;
68126;SDS011;54931;52.098;21.006;2023-06-10T11:46:35;6.00;;;4.50;;
68126;SDS011;54931;52.098;21.006;2023-06-10T11:49:05;8.90;;;4.50;;
68126;SDS011;54931;52.098;21.006;2023-06-10T11:51:36;9.90;;;4.70;;
68126;SDS011;54931;52.098;21.006;2023-06-10T11:54:10;10.10;;;5.20;;
68126;SDS011;54931;52.098;21.006;2023-06-10T11:56:38;9.40;;;5.40;;
68126;SDS011;54931;52.098;21.006;2023-06-10T11:59:06;9.90;;;5.20;;
68126;SDS011;54931;52.098;21.006;2023-06-10T12:01:36;6.90;;;4.90;;
68126;SDS011;54931;52.098;21.006;2023-06-10T12:04:14;9.20;;;5.00;;
68126;SDS011;54931;52.098;21.006;2023-06-10T12:06:45;7.90;;;5.10;;
68126;SDS011;54931;52.098;21.006;2023-06-10T12:12:00;8.30;;;6.00;;
68126;SDS011;54931;52.098;21.006;2023-06-10T12:20:05;8.20;;;5.20;;
68126;SDS011;54931;52.098;21.006;2023-06-10T12:22:43;9.30;;;5.90;;
68126;SDS011;54931;52.098;21.006;2023-06-10T12:25:11;8.50;;;6.00;;
68126;SDS011;54931;52.098;21.006;2023-06-10T12:27:49;8.50;;;6.00;;
68126;SDS011;54931;52.098;21.006;2023-06-10T12:30:21;8.20;;;5.60;;
68126;SDS011;54931;52.098;21.006;2023-06-10T12:32:51;9.20;;;6.30;;
68126;SDS011;54931;52.098;21.006;2023-06-10T12:35:23;11.40;;;6.30;;
68126;SDS011;54931;52.098;21.006;2023-06-10T12:38:04;10.10;;;6.00;;
68126;SDS011;54931;52.098;21.006;2023-06-10T12:40:39;7.80;;;5.90;;
68126;SDS011;54931;52.098;21.006;2023-06-10T12:43:08;8.70;;;6.50;;
68126;SDS011;54931;52.098;21.006;2023-06-10T12:45:38;10.80;;;7.40;;
68126;SDS011;54931;52.098;21.006;2023-06-10T12:48:09;8.80;;;7.00;;
68126;SDS011;54931;52.098;21.006;2023-06-10T12:50:55;21.70;;;16.00;;
68126;SDS011;54931;52.098;21.006;2023-06-10T12:53:25;11.40;;;6.60;;
68126;SDS011;54931;52.098;21.006;2023-06-10T12:55:56;8.20;;;6.30;;
68126;SDS011;54931;52.098;21.006;2023-06-10T12:58:26;10.30;;;6.40;;
68126;SDS011;54931;52.098;21.006;2023-06-10T13:00:54;9.90;;;6.40;;
68126;SDS011;54931;52.098;21.006;2023-06-10T13:03:24;9.40;;;6.60;;
68126;SDS011;54931;52.098;21.006;2023-06-10T13:05:52;8.70;;;6.10;;
68126;SDS011;54931;52.098;21.006;2023-06-10T13:08:20;10.50;;;6.80;;
68126;SDS011;54931;52.098;21.006;2023-06-10T13:10:48;11.70;;;7.40;;
68126;SDS011;54931;52.098;21.006;2023-06-10T13:13:16;9.10;;;7.00;;
68126;SDS011;54931;52.098;21.006;2023-06-10T13:15:45;12.30;;;6.80;;
68126;SDS011;54931;52.098;21.006;2023-06-10T13:18:13;9.80;;;6.70;;
68126;SDS011;54931;52.098;21.006;2023-06-10T13:20:41;10.50;;;6.50;;
68126;SDS011;54931;52.098;21.006;2023-06-10T13:23:09;8.80;;;6.30;;
68126;SDS011;54931;52.098;21.006;2023-06-10T13:25:37;8.00;;;6.50;;
68126;SDS011;54931;52.098;21.006;2023-06-10T13:28:08;13.00;;;6.70;;
68126;SDS011;54931;52.098;21.006;2023-06-10T13:30:36;9.50;;;6.60;;
68126;SDS011;54931;52.098;21.006;2023-06-10T13:33:04;7.80;;;6.10;;
68126;SDS011;54931;52.098;21.006;2023-06-10T13:35:32;10.20;;;6.90;;
68126;SDS011;54931;52.098;21.006;2023-06-10T13:38:00;9.30;;;6.90;;
68126;SDS011;54931;52.098;21.006;2023-06-10T13:40:28;11.00;;;6.30;;
68126;SDS011;54931;52.098;21.006;2023-06-10T13:42:56;10.90;;;6.80;;
68126;SDS011;54931;52.098;21.006;2023-06-10T13:45:24;9.80;;;6.80;;
68126;SDS011;54931;52.098;21.006;2023-06-10T13:47:52;11.40;;;7.00;;
68126;SDS011;54931;52.098;21.006;2023-06-10T13:50:20;15.00;;;7.30;;
68126;SDS011;54931;52.098;21.006;2023-06-10T13:52:48;8.80;;;6.90;;
68126;SDS011;54931;52.098;21.006;2023-06-10T13:55:16;10.40;;;7.30;;
68126;SDS011;54931;52.098;21.006;2023-06-10T13:57:46;12.80;;;6.70;;
68126;SDS011;54931;52.098;21.006;2023-06-10T14:00:14;8.60;;;6.50;;
68126;SDS011;54931;52.098;21.006;2023-06-10T14:02:42;11.50;;;6.30;;
68126;SDS011;54931;52.098;21.006;2023-06-10T14:05:10;10.10;;;7.00;;
68126;SDS011;54931;52.098;21.006;2023-06-10T14:07:38;10.60;;;6.60;;
68126;SDS011;54931;52.098;21.006;2023-06-10T14:10:07;15.00;;;7.00;;
68126;SDS011;54931;52.098;21.006;2023-06-10T14:12:37;11.10;;;7.20;;
68126;SDS011;54931;52.098;21.006;2023-06-10T14:15:05;11.30;;;7.10;;
68126;SDS011;54931;52.098;21.006;2023-06-10T14:17:34;10.50;;;6.60;;
68126;SDS011;54931;52.098;21.006;2023-06-10T14:20:02;10.80;;;6.80;;
68126;SDS011;54931;52.098;21.006;2023-06-10T14:22:31;8.60;;;6.40;;
68126;SDS011;54931;52.098;21.006;2023-06-10T14:24:59;9.30;;;6.90;;
68126;SDS011;54931;52.098;21.006;2023-06-10T14:27:27;9.80;;;7.00;;
68126;SDS011;54931;52.098;21.006;2023-06-10T14:29:55;11.30;;;6.70;;
68126;SDS011;54931;52.098;21.006;2023-06-10T14:32:23;12.60;;;6.60;;
68126;SDS011;54931;52.098;21.006;2023-06-10T14:34:51;10.70;;;6.40;;
68126;SDS011;54931;52.098;21.006;2023-06-10T14:37:18;7.10;;;5.90;;
68126;SDS011;54931;52.098;21.006;2023-06-10T14:39:46;7.70;;;6.20;;
68126;SDS011;54931;52.098;21.006;2023-06-10T14:42:14;11.80;;;6.70;;
68126;SDS011;54931;52.098;21.006;2023-06-10T14:44:42;7.90;;;6.50;;
68126;SDS011;54931;52.098;21.006;2023-06-10T14:47:10;10.00;;;6.80;;
68126;SDS011;54931;52.098;21.006;2023-06-10T14:49:38;11.00;;;6.70;;
68126;SDS011;54931;52.098;21.006;2023-06-10T14:52:06;8.30;;;6.30;;
68126;SDS011;54931;52.098;21.006;2023-06-10T14:54:34;10.10;;;5.80;;
68126;SDS011;54931;52.098;21.006;2023-06-10T14:57:03;9.10;;;6.40;;
68126;SDS011;54931;52.098;21.006;2023-06-10T14:59:31;8.30;;;6.40;;
68126;SDS011;54931;52.098;21.006;2023-06-10T15:01:58;8.30;;;6.20;;
68126;SDS011;54931;52.098;21.006;2023-06-10T15:04:28;12.60;;;6.30;;
68126;SDS011;54931;52.098;21.006;2023-06-10T15:06:56;9.00;;;6.10;;
68126;SDS011;54931;52.098;21.006;2023-06-10T15:09:25;11.30;;;6.50;;